Time;durP1;ratioP1;P1;durP2;ratioP2;P2;SDS_P1;SDS_P2;PMS_P1;PMS_P2;Temp;Humidity;BMP_temperature;BMP_pressure;BME280_temperature;BME280_humidity;BME280_pressure;Samples;Min_cycle;Max_cycle;Signal;HPM_P1;HPM_P2
2022/05/10 00:02:13;;;;;;;0.70;0.70;;;;;;;22.71;48.17;99779.53;5110414;28;20089;-61
2022/05/10 00:04:40;;;;;;;1.60;1.10;;;;;;;22.69;48.10;99773.53;5111351;28;20051;-61
2022/05/10 00:07:06;;;;;;;1.65;1.00;;;;;;;22.71;48.24;99776.72;5110309;28;20059;-61
2022/05/10 00:09:31;;;;;;;1.70;1.00;;;;;;;22.70;48.13;99777.91;5111512;28;20096;-62
2022/05/10 00:11:58;;;;;;;1.38;0.90;;;;;;;22.70;47.93;99775.94;5109599;28;20052;-61
2022/05/10 00:14:28;;;;;;;1.30;0.90;;;;;;;22.68;48.03;99771.94;5109127;28;20126;-61
2022/05/10 00:16:54;;;;;;;1.25;0.80;;;;;;;22.68;48.19;99771.94;5110134;28;20411;-61
2022/05/10 00:19:22;;;;;;;1.38;0.80;;;;;;;22.67;48.18;99776.69;5109698;28;20054;-62
2022/05/10 00:21:49;;;;;;;1.40;1.00;;;;;;;22.64;48.23;99765.50;5109377;28;20032;-62
2022/05/10 00:24:15;;;;;;;1.20;0.90;;;;;;;22.64;48.12;99766.28;5110435;28;20109;-62
2022/05/10 00:26:40;;;;;;;1.15;0.90;;;;;;;22.66;48.22;99771.50;5111098;28;20438;-62
2022/05/10 00:29:06;;;;;;;1.10;0.82;;;;;;;22.66;48.09;99768.72;5111234;28;20108;-62
2022/05/10 00:31:32;;;;;;;1.50;1.00;;;;;;;22.66;48.14;99771.50;5111179;28;20047;-62
2022/05/10 00:33:59;;;;;;;1.13;0.75;;;;;;;22.66;48.20;99774.31;5111246;28;20040;-61
2022/05/10 00:36:25;;;;;;;1.13;0.80;;;;;;;22.66;48.20;99774.31;5110975;28;20050;-62
2022/05/10 00:38:51;;;;;;;1.50;1.00;;;;;;;22.66;48.27;99774.31;5110822;28;20044;-62
2022/05/10 00:41:36;;;;;;;1.55;1.10;;;;;;;22.66;48.05;99785.44;5111005;28;20048;-62
2022/05/10 00:44:13;;;;;;;2.25;1.10;;;;;;;22.65;48.32;99783.84;5110827;28;20062;-62
2022/05/10 00:46:49;;;;;;;1.70;1.10;;;;;;;22.63;48.32;99780.63;5110810;28;20055;-61
2022/05/10 00:49:26;;;;;;;1.10;0.90;;;;;;;22.64;48.11;99782.22;5110739;28;20465;-62
2022/05/10 00:51:59;;;;;;;1.20;0.90;;;;;;;22.63;48.24;99786.19;5110615;28;20056;-63
2022/05/10 00:54:40;;;;;;;1.30;0.90;;;;;;;22.63;48.33;99787.00;5111098;28;20380;-63
2022/05/10 00:57:14;;;;;;;1.52;1.00;;;;;;;22.62;48.41;99785.38;5108512;28;20518;-62
2022/05/10 01:00:07;;;;;;;1.33;0.85;;;;;;;22.61;48.26;99778.22;5110810;28;20044;-62
2022/05/10 01:02:35;;;;;;;;;;;;;;;22.64;48.20;99782.22;5107806;28;20040;-61
2022/05/10 01:05:12;;;;;;;1.20;0.80;;;;;;;22.59;48.24;99775.00;5108480;28;19916;-62
2022/05/10 01:07:49;;;;;;;1.83;1.05;;;;;;;22.59;48.12;99779.78;5108483;28;20139;-61
2022/05/10 01:10:26;;;;;;;1.42;1.10;;;;;;;22.59;48.11;99786.16;5110621;28;20403;-62
2022/05/10 01:12:59;;;;;;;1.30;0.90;;;;;;;22.59;48.26;99779.78;5110633;28;20101;-61
2022/05/10 01:15:25;;;;;;;1.52;0.93;;;;;;;22.57;48.13;99773.75;5092152;28;20399;-62
2022/05/10 01:17:55;;;;;;;1.10;0.80;;;;;;;22.54;48.15;99778.13;5110349;28;20044;-61
2022/05/10 01:20:36;;;;;;;1.08;0.82;;;;;;;22.56;48.46;99774.94;5110488;28;20075;-61
2022/05/10 01:23:31;;;;;;;1.23;0.90;;;;;;;22.56;48.25;99780.53;5110188;28;20495;-62
2022/05/10 01:26:04;;;;;;;1.20;0.80;;;;;;;22.54;48.18;99783.69;5110026;28;20055;-61
2022/05/10 01:28:43;;;;;;;1.20;0.90;;;;;;;22.55;48.15;99781.72;5110414;28;20517;-62
2022/05/10 01:31:17;;;;;;;1.52;1.00;;;;;;;22.55;48.09;99778.91;5110390;28;20051;-62
2022/05/10 01:33:50;;;;;;;1.23;0.90;;;;;;;22.53;48.07;99776.50;5110181;28;20461;-61
2022/05/10 01:36:33;;;;;;;;;;;;;;;22.56;48.05;99774.94;5110648;28;20043;-61
2022/05/10 01:39:02;;;;;;;;;;;;;;;22.56;48.19;99778.53;5110867;28;19915;-61
2022/05/10 01:41:43;;;;;;;1.85;1.10;;;;;;;22.54;48.02;99780.91;5110486;28;19923;-61
2022/05/10 01:44:29;;;;;;;2.13;1.02;;;;;;;22.50;48.08;99769.72;5110068;28;20232;-61
2022/05/10 01:47:03;;;;;;;1.50;0.98;;;;;;;22.50;48.10;99782.81;5110194;28;20048;-62
2022/05/10 01:49:41;;;;;;;1.35;0.90;;;;;;;22.46;48.39;99774.44;5110033;28;20522;-61
2022/05/10 01:52:14;;;;;;;1.27;1.00;;;;;;;22.44;48.17;99776.81;5110066;28;20125;-62
2022/05/10 01:54:40;;;;;;;1.42;0.90;;;;;;;22.46;48.23;99774.44;5109855;28;20068;-62
2022/05/10 01:57:13;;;;;;;1.67;1.10;;;;;;;22.45;48.07;99775.63;5109876;28;20035;-61
2022/05/10 01:59:43;;;;;;;1.60;1.00;;;;;;;22.44;48.12;99765.66;5110201;28;20122;-61
2022/05/10 02:02:10;;;;;;;1.85;1.10;;;;;;;22.44;48.24;99762.88;5109928;28;20051;-62
2022/05/10 02:04:39;;;;;;;1.70;1.00;;;;;;;22.41;48.05;99758.03;5113287;28;20048;-62
2022/05/10 02:07:16;;;;;;;1.60;1.00;;;;;;;22.42;48.39;99762.41;5112470;28;20044;-62
2022/05/10 02:09:45;;;;;;;1.30;0.90;;;;;;;22.43;48.22;99757.63;5110090;28;20040;-62
2022/05/10 02:12:15;;;;;;;1.70;1.10;;;;;;;22.42;48.09;99758.81;5113640;28;20042;-62
2022/05/10 02:14:54;;;;;;;1.35;0.90;;;;;;;22.40;48.25;99767.56;5112655;28;20113;-62
2022/05/10 02:17:46;;;;;;;1.23;0.90;;;;;;;22.40;48.32;99762.00;5113185;28;20176;-63
2022/05/10 02:20:28;;;;;;;1.52;1.02;;;;;;;22.39;48.36;99765.16;5111404;28;20055;-62
2022/05/10 02:23:07;;;;;;;1.38;1.00;;;;;;;22.38;48.33;99763.56;5113150;28;20126;-62
2022/05/10 02:25:37;;;;;;;1.80;1.20;;;;;;;22.37;48.29;99768.34;5112108;28;20387;-62
2022/05/10 02:28:18;;;;;;;1.50;1.00;;;;;;;22.35;48.36;99765.09;5111811;28;20056;-61
2022/05/10 02:30:44;;;;;;;1.65;1.00;;;;;;;22.36;48.20;99765.91;5113387;28;20040;-61
2022/05/10 02:33:13;;;;;;;1.27;0.93;;;;;;;22.36;48.08;99768.69;5112959;28;20093;-61
2022/05/10 02:35:58;;;;;;;1.42;1.00;;;;;;;22.35;48.30;99759.53;5113104;28;20040;-61
2022/05/10 02:38:44;;;;;;;1.27;0.90;;;;;;;22.37;48.27;99761.97;5110649;28;20031;-62
2022/05/10 02:41:14;;;;;;;1.58;1.00;;;;;;;22.34;48.29;99757.13;5112850;28;20059;-62
2022/05/10 02:44:03;;;;;;;1.60;1.00;;;;;;;22.35;48.36;99756.75;5112152;28;20059;-62
2022/05/10 02:46:29;;;;;;;1.50;1.00;;;;;;;22.35;48.22;99759.53;5110536;28;20048;-62
2022/05/10 02:48:55;;;;;;;1.42;1.00;;;;;;;22.34;48.44;99759.91;5091975;28;20052;-62
2022/05/10 02:51:21;;;;;;;1.33;1.00;;;;;;;22.35;48.18;99765.09;5092351;28;20052;-62
2022/05/10 02:53:47;;;;;;;1.65;1.10;;;;;;;22.33;48.14;99756.31;5092421;28;20070;-62
2022/05/10 02:56:15;;;;;;;1.67;1.10;;;;;;;22.34;48.15;99763.50;5092310;28;20105;-62
2022/05/10 02:58:52;;;;;;;1.30;0.90;;;;;;;22.33;48.12;99773.03;5092341;28;21011;-62
2022/05/10 03:01:50;;;;;;;1.38;0.82;;;;;;;22.32;48.12;99770.66;5092466;28;20122;-62
2022/05/10 03:04:16;;;;;;;1.70;1.20;;;;;;;22.32;48.04;99762.28;5090291;28;20052;-62
2022/05/10 03:06:44;;;;;;;1.50;1.00;;;;;;;22.30;48.23;99761.88;5091849;28;20044;-62
2022/05/10 03:09:10;;;;;;;1.30;0.98;;;;;;;22.28;48.42;99764.19;5092118;28;20074;-62
2022/05/10 03:11:37;;;;;;;1.38;1.00;;;;;;;22.25;48.12;99758.22;5091043;28;20039;-62
2022/05/10 03:14:07;;;;;;;1.33;0.90;;;;;;;22.23;48.37;99759.78;5072867;28;20522;-62
2022/05/10 03:16:34;;;;;;;1.30;0.90;;;;;;;22.23;48.47;99763.38;5072667;28;20143;-62
2022/05/10 03:19:00;;;;;;;1.30;0.85;;;;;;;22.22;48.30;99760.97;5091927;28;20040;-62
2022/05/10 03:21:25;;;;;;;1.80;1.15;;;;;;;22.21;48.28;99759.31;5091959;28;20051;-62
2022/05/10 03:23:51;;;;;;;1.85;1.15;;;;;;;22.21;48.21;99751.78;5091844;28;20583;-62
2022/05/10 03:26:21;;;;;;;1.10;0.80;;;;;;;22.21;48.31;99756.53;5091843;28;20130;-62
2022/05/10 03:28:47;;;;;;;1.13;0.80;;;;;;;22.20;48.23;99752.16;5091885;28;20040;-62
2022/05/10 03:31:17;;;;;;;1.17;0.98;;;;;;;22.15;48.29;99746.94;5091671;28;20558;-61
2022/05/10 03:33:43;;;;;;;1.48;0.90;;;;;;;22.18;48.25;99754.53;5091623;28;20056;-62
2022/05/10 03:36:08;;;;;;;1.65;1.00;;;;;;;22.17;48.34;99758.50;5091616;28;20536;-62
2022/05/10 03:38:36;;;;;;;1.42;0.85;;;;;;;22.19;48.39;99761.69;5091584;28;20040;-62
2022/05/10 03:41:04;;;;;;;1.17;0.90;;;;;;;22.17;48.11;99756.50;5091706;28;20044;-61
2022/05/10 03:43:30;;;;;;;1.55;1.00;;;;;;;22.20;48.31;99757.72;5091097;28;20040;-62
2022/05/10 03:45:55;;;;;;;1.40;0.95;;;;;;;22.18;48.03;99754.53;5091333;28;20051;-62
2022/05/10 03:48:21;;;;;;;1.33;0.90;;;;;;;22.19;48.27;99761.69;5060615;28;20093;-62
2022/05/10 03:50:47;;;;;;;1.10;0.80;;;;;;;22.18;48.31;99754.53;5088666;28;20488;-62
2022/05/10 03:53:12;;;;;;;1.13;0.88;;;;;;;22.19;48.41;99761.69;5091496;28;20047;-62
2022/05/10 03:55:37;;;;;;;1.20;0.88;;;;;;;22.17;48.19;99755.69;5090492;28;20044;-62
2022/05/10 03:58:04;;;;;;;0.95;0.70;;;;;;;22.17;48.24;99752.91;5089617;28;20075;-62
2022/05/10 04:00:30;;;;;;;1.48;1.00;;;;;;;22.19;48.26;99753.34;5091280;28;20051;-62
2022/05/10 04:02:57;;;;;;;1.65;1.00;;;;;;;22.18;48.35;99754.53;5089110;28;20044;-62
2022/05/10 04:05:25;;;;;;;1.80;1.10;;;;;;;22.15;48.36;99752.50;5090099;28;20048;-62
2022/05/10 04:07:51;;;;;;;1.40;0.95;;;;;;;22.17;48.23;99758.50;5091019;28;20044;-62
2022/05/10 04:10:18;;;;;;;1.45;1.10;;;;;;;22.16;48.28;99763.25;5091172;28;20070;-62
2022/05/10 04:12:44;;;;;;;1.30;0.90;;;;;;;22.14;48.35;99762.81;5091131;28;20036;-62
2022/05/10 04:15:14;;;;;;;1.90;1.00;;;;;;;22.13;48.20;99764.00;5091247;28;20113;-62
2022/05/10 04:17:40;;;;;;;1.50;1.00;;;;;;;22.13;48.30;99765.97;5088286;28;20353;-62
2022/05/10 04:20:06;;;;;;;1.70;1.13;;;;;;;22.12;48.39;99767.97;5091034;28;20058;-62
2022/05/10 04:22:33;;;;;;;1.38;0.90;;;;;;;22.11;48.41;99766.34;5072969;28;20457;-62
2022/05/10 04:24:58;;;;;;;1.38;1.00;;;;;;;22.12;48.32;99762.38;5090710;28;20529;-62
2022/05/10 04:27:24;;;;;;;1.45;1.00;;;;;;;22.12;48.12;99765.19;5089239;28;20058;-62
2022/05/10 04:29:49;;;;;;;1.00;0.80;;;;;;;22.11;48.42;99766.34;5090729;28;20503;-63
2022/05/10 04:32:14;;;;;;;1.35;1.00;;;;;;;22.11;48.19;99771.13;5090826;28;20044;-62
2022/05/10 04:34:40;;;;;;;1.25;0.88;;;;;;;22.10;48.12;99769.53;5090830;28;20047;-62
2022/05/10 04:37:05;;;;;;;1.52;0.98;;;;;;;22.10;48.57;99775.09;5090674;28;20136;-62
2022/05/10 04:41:24;;;;;;;1.33;0.95;;;;;;;22.08;48.51;99772.69;5090831;28;20385;-62
2022/05/10 04:42:17;;;;;;;1.23;0.85;;;;;;;22.10;48.43;99777.88;5090274;28;20096;-62
2022/05/10 04:44:42;;;;;;;1.52;1.00;;;;;;;22.09;48.25;99774.28;5089501;28;20131;-62
2022/05/10 04:47:08;;;;;;;1.55;1.08;;;;;;;22.10;48.32;99775.91;5089635;28;20447;-62
2022/05/10 04:49:33;;;;;;;1.27;0.90;;;;;;;22.11;48.48;99780.28;5090542;28;20044;-62
2022/05/10 04:51:58;;;;;;;1.58;1.02;;;;;;;22.10;48.38;99781.47;5089481;28;20040;-61
2022/05/10 04:54:24;;;;;;;1.90;1.13;;;;;;;22.11;48.55;99790.63;5090372;28;20032;-62
2022/05/10 04:56:49;;;;;;;1.33;0.80;;;;;;;22.09;48.67;99787.44;5090411;28;20051;-62
2022/05/10 04:59:14;;;;;;;1.35;1.00;;;;;;;22.10;48.58;99778.69;5090452;28;20123;-62
2022/05/10 05:01:40;;;;;;;1.05;0.88;;;;;;;22.11;48.59;99785.06;5090452;28;20411;-62
2022/05/10 05:04:05;;;;;;;1.77;1.00;;;;;;;22.10;48.76;99783.47;5090481;28;20114;-62
2022/05/10 05:06:31;;;;;;;1.58;1.10;;;;;;;22.11;48.78;99787.84;5087764;28;20503;-62
2022/05/10 05:08:56;;;;;;;1.50;0.93;;;;;;;22.10;48.57;99791.81;5089564;28;20051;-61
2022/05/10 05:11:23;;;;;;;1.50;0.90;;;;;;;22.12;48.47;99800.59;5088786;28;20055;-61
2022/05/10 05:13:49;;;;;;;1.42;1.10;;;;;;;22.13;48.71;99797.44;5088571;28;20051;-61
2022/05/10 05:16:14;;;;;;;1.50;1.00;;;;;;;22.15;48.64;99794.28;5090193;28;20052;-62
2022/05/10 05:18:40;;;;;;;1.63;1.05;;;;;;;22.15;48.62;99799.84;5090076;28;20080;-62
2022/05/10 05:21:06;;;;;;;1.48;0.95;;;;;;;22.12;48.50;99806.16;5089998;28;20415;-62
2022/05/10 05:23:31;;;;;;;1.67;1.17;;;;;;;22.12;48.92;99803.38;5090131;28;20052;-62
2022/05/10 05:25:56;;;;;;;1.27;0.90;;;;;;;22.10;48.79;99800.16;5089902;28;20052;-62
2022/05/10 05:28:23;;;;;;;2.45;1.30;;;;;;;22.11;48.77;99808.16;5088788;28;20032;-62
2022/05/10 05:30:50;;;;;;;1.98;1.27;;;;;;;22.13;48.80;99804.97;5089909;28;20051;-62
2022/05/10 05:33:15;;;;;;;2.28;1.10;;;;;;;22.13;48.67;99807.75;5088704;28;20143;-62
2022/05/10 05:35:41;;;;;;;3.90;1.10;;;;;;;22.22;48.82;99813.91;5089679;28;20127;-64
2022/05/10 05:38:08;;;;;;;2.05;1.15;;;;;;;22.23;48.85;99807.94;5087260;28;20040;-63
2022/05/10 05:40:35;;;;;;;3.15;1.10;;;;;;;22.25;49.12;99810.34;5089859;28;20504;-63
2022/05/10 05:43:01;;;;;;;1.75;1.10;;;;;;;22.24;48.88;99815.13;5089807;28;20044;-63
2022/05/10 05:45:27;;;;;;;2.08;0.90;;;;;;;22.23;49.21;99812.72;5089509;28;20128;-63
2022/05/10 05:47:52;;;;;;;1.60;1.10;;;;;;;22.22;48.91;99817.50;5089477;28;20079;-63
2022/05/10 05:50:21;;;;;;;2.63;1.20;;;;;;;22.22;48.88;99822.25;5089348;28;20503;-63
2022/05/10 05:52:47;;;;;;;2.83;1.20;;;;;;;22.22;48.88;99816.69;5089092;28;20047;-62
2022/05/10 05:55:14;;;;;;;2.03;1.30;;;;;;;22.22;49.13;99819.47;5089708;28;20113;-61
2022/05/10 05:57:40;;;;;;;1.88;1.13;;;;;;;22.21;49.04;99820.63;5101446;28;20062;-61
2022/05/10 06:00:09;;;;;;;1.60;1.15;;;;;;;22.22;48.98;99816.69;5109549;28;20036;-61
2022/05/10 06:02:36;;;;;;;2.95;1.25;;;;;;;22.22;48.98;99813.91;5109814;28;20093;-61
2022/05/10 06:05:02;;;;;;;2.08;1.15;;;;;;;22.24;49.08;99828.25;5109661;28;20142;-61
2022/05/10 06:07:28;;;;;;;1.65;1.15;;;;;;;22.24;48.86;99823.47;5109686;28;20093;-61
2022/05/10 06:09:53;;;;;;;2.90;1.23;;;;;;;22.26;49.04;99828.69;5107941;28;20047;-63
2022/05/10 06:12:19;;;;;;;2.00;1.20;;;;;;;22.25;49.03;99827.88;5109495;28;20408;-63
2022/05/10 06:14:46;;;;;;;2.42;1.20;;;;;;;22.25;48.86;99824.28;5109605;28;20055;-63
2022/05/10 06:17:13;;;;;;;2.10;1.17;;;;;;;22.26;48.97;99825.88;5109439;28;20047;-63
2022/05/10 06:19:41;;;;;;;1.58;1.10;;;;;;;22.28;48.92;99826.31;5109480;28;20044;-63
2022/05/10 06:22:07;;;;;;;1.70;1.08;;;;;;;22.27;48.77;99823.91;5108512;28;20507;-63
2022/05/10 06:24:33;;;;;;;1.88;1.00;;;;;;;22.29;48.74;99827.13;5108824;28;20506;-62
2022/05/10 06:26:59;;;;;;;1.85;1.13;;;;;;;22.30;48.78;99829.56;5108392;28;20043;-63
2022/05/10 06:29:24;;;;;;;1.33;1.02;;;;;;;22.27;48.74;99823.91;5109416;28;20043;-63
2022/05/10 06:31:50;;;;;;;1.90;1.20;;;;;;;22.32;48.88;99829.16;5108078;28;20044;-63
2022/05/10 06:34:17;;;;;;;1.83;1.13;;;;;;;22.33;48.59;99830.78;5109470;28;20082;-63
2022/05/10 06:36:43;;;;;;;1.90;1.20;;;;;;;22.32;48.65;99831.94;5107376;28;20040;-63
2022/05/10 06:39:09;;;;;;;1.35;0.98;;;;;;;22.32;48.76;99827.19;5109250;28;20127;-63
2022/05/10 06:41:35;;;;;;;1.83;1.15;;;;;;;22.33;48.72;99828.78;5109497;28;20489;-63
2022/05/10 06:44:02;;;;;;;1.92;1.20;;;;;;;22.31;48.72;99828.38;5100675;28;20044;-64
2022/05/10 06:46:31;;;;;;;1.63;1.10;;;;;;;22.31;48.58;99839.50;5095749;28;20139;-64
2022/05/10 06:48:56;;;;;;;1.98;1.17;;;;;;;22.39;48.68;99832.06;5091925;28;20051;-64
2022/05/10 06:51:23;;;;;;;4.18;1.60;;;;;;;22.63;48.24;99830.81;5094255;28;20465;-65
2022/05/10 06:53:50;;;;;;;3.92;1.52;;;;;;;22.78;47.44;99824.22;5102826;28;20469;-64
2022/05/10 06:56:16;;;;;;;14.40;8.85;;;;;;;22.86;47.37;99825.16;5107969;28;20085;-64
2022/05/10 06:58:42;;;;;;;10.23;4.57;;;;;;;22.91;47.20;99822.84;5101847;28;20048;-57
2022/05/10 07:01:13;;;;;;;5.18;3.00;;;;;;;22.98;47.13;99824.94;5097409;28;20048;-57
2022/05/10 07:03:42;;;;;;;3.65;2.45;;;;;;;22.98;46.92;99819.34;5097985;28;20048;-59
2022/05/10 07:06:09;;;;;;;4.28;1.95;;;;;;;22.95;47.32;99822.91;5096228;28;20047;-58
2022/05/10 07:08:35;;;;;;;3.78;1.90;;;;;;;22.93;47.29;99823.28;5104189;28;20385;-59
2022/05/10 07:11:01;;;;;;;3.65;2.13;;;;;;;22.98;47.38;99824.94;5093085;28;20047;-59
2022/05/10 07:13:29;;;;;;;3.90;1.73;;;;;;;22.91;47.47;99825.63;5107448;28;20070;-60
2022/05/10 07:15:54;;;;;;;4.05;2.10;;;;;;;22.92;47.65;99824.44;5108603;28;20085;-62
2022/05/10 07:18:20;;;;;;;3.40;1.80;;;;;;;22.91;47.59;99820.06;5109333;28;20036;-62
2022/05/10 07:20:47;;;;;;;4.93;1.90;;;;;;;22.80;47.73;99817.13;5100052;28;20055;-63
2022/05/10 07:23:13;;;;;;;4.38;2.25;;;;;;;22.82;47.97;99815.94;5099218;28;20050;-62
2022/05/10 07:25:39;;;;;;;3.30;2.00;;;;;;;22.80;48.24;99813.53;5096826;28;20097;-64
2022/05/10 07:28:08;;;;;;;3.40;1.77;;;;;;;22.83;48.22;99818.34;5098082;28;20043;-60
2022/05/10 07:30:34;;;;;;;3.65;1.95;;;;;;;22.86;48.20;99811.22;5089154;28;20039;-60
2022/05/10 07:33:00;;;;;;;6.28;1.63;;;;;;;22.87;47.93;99810.84;5098080;28;20515;-62
2022/05/10 07:38:13;;;;;;;3.35;2.00;;;;;;;22.93;47.84;99811.31;5098902;28;20098;-62
2022/05/10 07:40:40;;;;;;;3.65;2.20;;;;;;;22.94;47.72;99813.75;5109490;28;20054;-63
2022/05/10 07:43:06;;;;;;;4.90;2.00;;;;;;;22.96;47.89;99813.34;5107169;28;20080;-60
2022/05/10 07:45:32;;;;;;;3.38;1.80;;;;;;;22.97;47.66;99803.78;5101318;28;20074;-61
2022/05/10 07:47:57;;;;;;;5.40;2.30;;;;;;;22.88;48.13;99803.28;5096067;28;20075;-61
2022/05/10 07:50:22;;;;;;;3.45;2.10;;;;;;;22.86;48.12;99806.47;5102060;28;20122;-59
2022/05/10 07:52:48;;;;;;;3.47;2.00;;;;;;;22.91;47.99;99808.91;5100569;28;20047;-59
2022/05/10 07:55:13;;;;;;;3.63;1.65;;;;;;;22.94;48.15;99813.75;5107241;28;20063;-59
2022/05/10 07:57:40;;;;;;;2.63;1.70;;;;;;;22.97;47.84;99801.00;5098871;28;20054;-60
2022/05/10 08:00:09;;;;;;;2.95;1.77;;;;;;;22.99;48.05;99809.78;5105737;28;20093;-64
2022/05/10 08:02:35;;;;;;;7.18;1.98;;;;;;;22.99;48.19;99804.22;5104609;28;20702;-63
2022/05/10 08:05:02;;;;;;;4.88;1.80;;;;;;;22.98;48.10;99803.41;5107687;28;20032;-63
2022/05/10 08:07:28;;;;;;;2.60;1.67;;;;;;;22.95;48.24;99798.59;5103800;28;20040;-63
2022/05/10 08:09:54;;;;;;;2.83;1.52;;;;;;;22.87;48.47;99807.28;5105726;28;20675;-62
2022/05/10 08:12:20;;;;;;;2.58;1.70;;;;;;;22.79;48.50;99800.78;5102193;28;20031;-62
2022/05/10 08:14:46;;;;;;;3.30;1.80;;;;;;;22.76;48.67;99801.50;5110825;28;20056;-63
2022/05/10 08:17:11;;;;;;;3.47;1.52;;;;;;;22.75;48.66;99799.91;5105586;28;20036;-63
2022/05/10 08:19:37;;;;;;;4.90;1.70;;;;;;;22.73;48.70;99785.53;5109963;28;20059;-62
2022/05/10 08:22:02;;;;;;;2.70;1.70;;;;;;;22.80;48.88;99794.81;5108431;28;20116;-59
2022/05/10 08:24:28;;;;;;;9.45;1.90;;;;;;;22.81;49.31;99784.44;5109180;28;20126;-61
2022/05/10 08:26:53;;;;;;;3.33;1.88;;;;;;;22.80;49.54;99783.66;5109658;28;20108;-64
2022/05/10 08:29:19;;;;;;;7.07;1.90;;;;;;;22.86;48.93;99783.31;5104420;28;20050;-61
2022/05/10 08:31:44;;;;;;;5.50;1.60;;;;;;;22.82;48.64;99783.25;5100906;28;20038;-59
2022/05/10 08:34:11;;;;;;;3.70;1.55;;;;;;;22.83;48.42;99784.88;5100501;28;20047;-59
2022/05/10 08:36:36;;;;;;;2.40;1.40;;;;;;;22.83;48.56;99786.84;5101476;28;20503;-61
2022/05/10 08:39:02;;;;;;;4.07;1.73;;;;;;;22.82;48.54;99791.63;5096028;28;20036;-61
2022/05/10 08:41:35;;;;;;;4.80;1.63;;;;;;;22.82;48.56;99774.09;5108239;28;20046;-61
2022/05/10 08:44:11;;;;;;;2.40;1.60;;;;;;;22.83;48.35;99784.06;5108232;28;20051;-61
2022/05/10 08:46:45;;;;;;;2.85;1.55;;;;;;;22.84;48.31;99777.31;5108214;28;20044;-59
2022/05/10 08:49:20;;;;;;;2.92;1.60;;;;;;;22.86;48.12;99786.94;5099500;28;20467;-59
2022/05/10 08:51:47;;;;;;;2.20;1.20;;;;;;;22.87;48.21;99779.38;5077669;28;20048;-59
2022/05/10 08:54:13;;;;;;;2.15;1.20;;;;;;;22.89;47.93;99774.22;5099003;28;20059;-60
2022/05/10 08:56:51;;;;;;;2.88;1.45;;;;;;;22.90;48.01;99779.41;5098188;28;20392;-59
2022/05/10 08:59:38;;;;;;;2.83;1.50;;;;;;;22.92;47.75;99767.84;5101594;28;20039;-59
2022/05/10 09:02:28;;;;;;;4.53;1.42;;;;;;;22.93;47.74;99767.50;5095878;28;20587;-62
2022/05/10 09:05:07;;;;;;;4.57;1.40;;;;;;;22.92;48.05;99756.69;5098701;28;20044;-62
2022/05/10 09:08:01;;;;;;;2.30;1.33;;;;;;;22.97;47.71;99757.16;5106946;28;20506;-68
2022/05/10 09:10:35;;;;;;;3.17;1.30;;;;;;;22.98;47.88;99769.94;5114176;28;20468;-62
2022/05/10 09:13:04;;;;;;;7.80;3.28;;;;;;;23.00;47.34;99755.59;5113909;28;20083;-63
2022/05/10 09:15:36;;;;;;;12.50;7.35;;;;;;;22.96;46.99;99761.16;5128483;28;20065;-60
2022/05/10 09:18:19;;;;;;;17.05;10.82;;;;;;;23.00;46.85;99762.00;5122694;28;20096;-60
2022/05/10 09:21:14;;;;;;;13.40;6.43;;;;;;;23.00;46.88;99762.00;5119033;28;20044;-61
2022/05/10 09:24:10;;;;;;;8.00;4.22;;;;;;;23.02;46.81;99753.25;5131508;27;20126;-60
2022/05/10 09:26:45;;;;;;;4.63;3.10;;;;;;;23.01;46.67;99752.44;5120792;27;20356;-61
2022/05/10 09:29:29;;;;;;;5.10;2.55;;;;;;;22.98;46.29;99747.63;5118600;27;20043;-61
2022/05/10 09:34:47;;;;;;;3.67;1.80;;;;;;;23.03;45.80;99740.91;5129449;28;20092;-61
2022/05/10 09:37:33;;;;;;;4.15;1.92;;;;;;;23.06;45.88;99737.34;5124260;28;20630;-61
2022/05/10 09:39:58;;;;;;;3.20;1.52;;;;;;;23.06;45.90;99738.13;5122000;28;20039;-61
2022/05/10 09:42:37;;;;;;;4.45;1.80;;;;;;;23.08;46.29;99734.19;5109041;28;20047;-61
2022/05/10 09:45:20;;;;;;;5.45;1.83;;;;;;;23.09;46.42;99730.19;5127440;28;20043;-60
2022/05/10 09:48:09;;;;;;;;;;;;;;;23.14;46.54;99733.44;5117215;27;20046;-60
2022/05/10 09:50:52;;;;;;;5.22;1.60;;;;;;;23.15;46.59;99731.47;5113573;27;20601;-63
2022/05/10 09:53:27;;;;;;;3.28;1.50;;;;;;;23.13;46.94;99719.88;5113470;27;20047;-61
2022/05/10 09:56:08;;;;;;;6.35;1.67;;;;;;;23.17;46.88;99715.94;5109410;27;20042;-62
2022/05/10 09:58:41;;;;;;;2.58;1.30;;;;;;;23.18;46.96;99708.38;5108616;27;20043;-61
2022/05/10 10:01:11;;;;;;;1.88;1.30;;;;;;;23.21;46.73;99705.59;5110170;27;20082;-60
2022/05/10 10:03:39;;;;;;;2.15;1.10;;;;;;;23.22;46.73;99703.63;5122369;28;20052;-61
2022/05/10 10:06:16;;;;;;;2.70;1.20;;;;;;;23.24;46.59;99704.03;5118787;27;20103;-61
2022/05/10 10:08:45;;;;;;;4.78;1.75;;;;;;;23.24;46.21;99704.03;5127072;28;20051;-62
2022/05/10 10:11:13;;;;;;;4.82;1.83;;;;;;;23.27;46.06;99698.47;5128057;28;20039;-60
2022/05/10 10:13:40;;;;;;;2.92;1.80;;;;;;;23.25;45.96;99697.28;5121251;27;20054;-60
2022/05/10 10:16:20;;;;;;;3.08;1.80;;;;;;;23.30;46.17;99700.53;5117995;27;20047;-60
2022/05/10 10:18:51;;;;;;;2.70;1.80;;;;;;;23.30;46.07;99692.16;5114103;27;20430;-60
2022/05/10 10:21:29;;;;;;;2.42;1.40;;;;;;;23.30;46.27;99694.94;5124435;28;20039;-63
2022/05/10 10:23:58;;;;;;;3.78;1.52;;;;;;;23.31;46.00;99690.94;5114420;28;20035;-64
2022/05/10 10:26:35;;;;;;;3.85;1.42;;;;;;;23.31;45.95;99685.38;5113239;27;20048;-64
2022/05/10 10:29:19;;;;;;;3.15;1.40;;;;;;;23.33;45.74;99690.56;5125614;28;20039;-61
2022/05/10 10:32:23;;;;;;;2.38;1.40;;;;;;;23.34;45.76;99681.00;5122553;27;20070;-61
2022/05/10 10:35:09;;;;;;;3.67;1.63;;;;;;;23.33;45.62;99682.97;5129870;27;20040;-60
2022/05/10 10:37:40;;;;;;;2.58;1.55;;;;;;;23.34;45.57;99673.41;5129417;27;20050;-60
2022/05/10 10:40:24;;;;;;;3.13;1.77;;;;;;;23.35;45.48;99671.44;5131565;27;20058;-60
2022/05/10 10:43:22;;;;;;;2.50;1.50;;;;;;;23.38;45.36;99667.88;5128337;28;20039;-60
2022/05/10 10:45:52;;;;;;;3.85;1.20;;;;;;;23.41;45.46;99661.50;5104391;28;20050;-60
2022/05/10 10:48:20;;;;;;;4.10;1.30;;;;;;;23.47;45.48;99659.97;5124546;28;20058;-60
2022/05/10 10:50:46;;;;;;;2.03;1.23;;;;;;;23.45;45.42;99653.97;5132333;28;20070;-61
2022/05/10 10:53:13;;;;;;;4.82;1.40;;;;;;;23.45;45.19;99653.97;5125450;27;20503;-61
2022/05/10 10:55:44;;;;;;;3.92;1.30;;;;;;;23.46;45.30;99643.63;5117824;27;20047;-61
2022/05/10 10:58:28;;;;;;;2.08;1.25;;;;;;;23.49;45.42;99649.22;5122616;27;20462;-61
2022/05/10 11:01:23;;;;;;;5.18;1.40;;;;;;;23.47;45.46;99643.22;5117941;27;20031;-60
2022/05/10 11:04:03;;;;;;;2.70;1.50;;;;;;;23.50;45.31;99644.44;5118090;27;20035;-60
2022/05/10 11:06:35;;;;;;;2.80;1.30;;;;;;;23.48;45.08;99630.06;5119169;27;20551;-60
2022/05/10 11:09:15;;;;;;;;;;;;;;;23.56;45.09;99637.28;5114162;27;20051;-61
2022/05/10 11:12:12;;;;;;;2.72;1.30;;;;;;;23.57;45.13;99628.53;5118298;27;19960;-60
2022/05/10 11:14:53;;;;;;;1.60;1.10;;;;;;;23.58;45.60;99635.75;5111657;28;20116;-61
2022/05/10 11:17:37;;;;;;;2.10;1.27;;;;;;;23.65;45.43;99617.44;5128729;27;20035;-61
2022/05/10 11:20:19;;;;;;;2.67;1.20;;;;;;;23.63;45.15;99625.41;5123480;27;20062;-60
2022/05/10 11:22:56;;;;;;;1.58;0.93;;;;;;;23.61;44.75;99615.44;5110920;27;20499;-60
2022/05/10 11:25:27;;;;;;;4.90;1.65;;;;;;;23.67;44.92;99624.25;5115239;28;20046;-60
2022/05/10 11:28:16;;;;;;;7.10;1.70;;;;;;;23.67;44.46;99609.50;5090187;28;20050;-61
2022/05/10 11:30:56;;;;;;;9.43;1.65;;;;;;;23.70;44.38;99603.91;5117256;27;20047;-61
2022/05/10 11:33:29;;;;;;;1.90;1.40;;;;;;;23.73;44.47;99596.75;5108372;28;20418;-64
2022/05/10 11:36:19;;;;;;;;;;;;;;;23.81;44.54;99601.19;5108149;28;20487;-62
2022/05/10 11:39:21;;;;;;;5.25;1.50;;;;;;;23.83;44.80;99596.81;5115331;28;19922;-66
2022/05/10 11:41:55;;;;;;;7.57;1.50;;;;;;;23.80;44.79;99588.41;5111551;28;20043;-64
2022/05/10 11:44:40;;;;;;;6.47;1.60;;;;;;;23.82;44.95;99588.81;5114055;28;20079;-64
2022/05/10 11:47:30;;;;;;;7.13;1.60;;;;;;;23.90;45.36;99593.25;5110124;28;20588;-60
2022/05/10 11:50:41;;;;;;;3.92;1.55;;;;;;;23.89;45.01;99586.88;5113571;28;20040;-61
2022/05/10 11:53:25;;;;;;;7.00;1.50;;;;;;;23.95;46.12;99581.72;5107212;28;20121;-67
2022/05/10 11:55:56;;;;;;;3.40;1.38;;;;;;;24.19;44.85;99580.19;5116447;28;20549;-61
2022/05/10 11:58:24;;;;;;;6.50;1.88;;;;;;;24.30;44.77;99569.88;5116503;28;20130;-59
2022/05/10 12:00:57;;;;;;;6.57;2.22;;;;;;;24.43;44.20;99568.34;5115976;28;20066;-59